createdAt,value
2018-05-24T00:00:08.944Z,6.23
2018-05-24T00:02:36.518Z,6.27
2018-05-24T00:05:04.108Z,6.03
2018-05-24T00:07:31.748Z,6.53
2018-05-24T00:09:59.332Z,6.60
2018-05-24T00:12:26.947Z,6.27
2018-05-24T00:14:54.540Z,6.13
2018-05-24T00:17:22.159Z,6.03
2018-05-24T00:19:49.720Z,6.13
2018-05-24T00:22:17.327Z,5.10
2018-05-24T00:24:45.064Z,5.93
2018-05-24T00:27:12.659Z,5.50
2018-05-24T00:29:40.286Z,5.30
2018-05-24T00:32:07.826Z,5.67
2018-05-24T00:34:35.439Z,5.80
2018-05-24T00:37:02.986Z,6.30
2018-05-24T00:39:30.535Z,6.27
2018-05-24T00:41:58.163Z,6.70
2018-05-24T00:44:25.709Z,6.53
2018-05-24T00:46:53.373Z,6.30
2018-05-24T00:49:20.895Z,6.30
2018-05-24T00:51:48.491Z,6.57
2018-05-24T00:54:18.410Z,6.97
2018-05-24T00:56:45.983Z,6.73
2018-05-24T00:59:13.565Z,6.70
2018-05-24T01:01:41.134Z,7.00
2018-05-24T01:04:08.672Z,7.17
2018-05-24T01:06:36.273Z,7.20
2018-05-24T01:09:03.855Z,6.30
2018-05-24T01:11:31.436Z,6.27
2018-05-24T01:13:58.976Z,6.80
2018-05-24T01:16:26.576Z,7.50
2018-05-24T01:18:54.168Z,8.07
2018-05-24T01:21:21.792Z,7.27
2018-05-24T01:23:49.343Z,7.20
2018-05-24T01:26:16.928Z,6.90
2018-05-24T01:28:44.519Z,6.33
2018-05-24T01:31:12.125Z,6.37
2018-05-24T01:33:39.744Z,7.03
2018-05-24T01:36:07.361Z,6.60
2018-05-24T01:38:34.923Z,7.50
2018-05-24T01:41:02.512Z,8.00
2018-05-24T01:43:30.107Z,7.70
2018-05-24T01:45:57.657Z,7.93
2018-05-24T01:48:25.283Z,8.73
2018-05-24T01:50:52.888Z,7.63
2018-05-24T01:53:20.506Z,7.53
2018-05-24T01:55:48.092Z,7.93
2018-05-24T01:58:15.698Z,8.33
2018-05-24T02:00:43.273Z,7.63
2018-05-24T02:03:11.233Z,7.80
2018-05-24T02:05:38.807Z,7.00
2018-05-24T02:08:06.422Z,7.67
2018-05-24T02:10:33.967Z,7.23
2018-05-24T02:13:01.539Z,6.83
2018-05-24T02:15:29.105Z,6.97
2018-05-24T02:17:56.719Z,6.97
2018-05-24T02:20:24.261Z,7.30
2018-05-24T02:22:51.885Z,6.20
2018-05-24T02:25:19.452Z,7.40
2018-05-24T02:27:47.031Z,6.63
2018-05-24T02:30:14.577Z,7.13
2018-05-24T02:32:42.558Z,6.77
2018-05-24T02:35:10.082Z,6.97
2018-05-24T02:37:37.634Z,7.20
2018-05-24T02:40:05.234Z,8.33
2018-05-24T02:42:32.821Z,8.80
2018-05-24T02:45:00.377Z,7.57
2018-05-24T02:47:27.914Z,7.43
2018-05-24T02:49:55.461Z,7.87
2018-05-24T02:52:23.029Z,7.87
2018-05-24T02:54:50.571Z,6.97
2018-05-24T02:57:18.125Z,8.53
2018-05-24T02:59:45.764Z,8.93
2018-05-24T03:02:13.302Z,7.77
2018-05-24T03:04:40.929Z,8.40
2018-05-24T03:07:08.514Z,7.77
2018-05-24T03:09:36.147Z,8.20
2018-05-24T03:12:03.674Z,7.47
2018-05-24T03:14:31.376Z,8.37
2018-05-24T03:16:58.923Z,8.43
2018-05-24T03:19:26.734Z,7.87
2018-05-24T03:21:54.262Z,8.10
2018-05-24T03:24:21.835Z,7.87
2018-05-24T03:26:49.376Z,8.13
2018-05-24T03:29:17.013Z,7.63
2018-05-24T03:31:44.586Z,8.23
2018-05-24T03:34:12.154Z,7.80
2018-05-24T03:36:39.732Z,7.40
2018-05-24T03:39:07.318Z,7.10
2018-05-24T03:41:34.865Z,7.13
2018-05-24T03:44:02.440Z,6.53
2018-05-24T03:46:31.904Z,6.50
2018-05-24T03:48:59.502Z,6.53
2018-05-24T03:51:27.106Z,7.60
2018-05-24T03:53:54.636Z,7.47
2018-05-24T03:56:22.212Z,7.20
2018-05-24T03:58:49.752Z,8.50
2018-05-24T04:04:30.996Z,7.50
2018-05-24T04:06:58.550Z,8.20
2018-05-24T04:09:26.353Z,8.13
2018-05-24T04:11:53.992Z,8.67
2018-05-24T04:14:21.515Z,8.40
2018-05-24T04:16:49.062Z,8.93
2018-05-24T04:19:16.661Z,8.50
2018-05-24T04:21:44.294Z,7.97
2018-05-24T04:24:11.813Z,7.80
2018-05-24T04:26:39.397Z,8.70
2018-05-24T04:29:07.003Z,7.93
2018-05-24T04:31:34.597Z,7.77
2018-05-24T04:34:02.153Z,7.37
2018-05-24T04:36:30.143Z,6.43
2018-05-24T04:38:57.720Z,7.33
2018-05-24T04:41:25.294Z,8.37
2018-05-24T04:43:52.861Z,8.70
2018-05-24T04:46:20.435Z,8.90
2018-05-24T04:48:48.013Z,9.60
2018-05-24T04:51:15.609Z,9.30
2018-05-24T04:53:43.149Z,8.77
2018-05-24T04:56:10.733Z,8.43
2018-05-24T04:58:38.293Z,8.83
2018-05-24T05:01:05.872Z,9.03
2018-05-24T05:03:33.408Z,8.30
2018-05-24T05:06:00.933Z,8.10
2018-05-24T05:08:28.478Z,7.50
2018-05-24T05:10:56.097Z,7.30
2018-05-24T05:13:23.655Z,7.47
2018-05-24T05:15:51.246Z,7.00
2018-05-24T05:18:18.828Z,6.90
2018-05-24T05:20:46.435Z,8.33
2018-05-24T05:23:14.082Z,8.03
2018-05-24T05:25:41.569Z,8.70
2018-05-24T05:28:09.545Z,7.60
2018-05-24T05:30:37.157Z,7.83
2018-05-24T05:33:04.705Z,8.07
2018-05-24T05:35:32.229Z,9.13
2018-05-24T05:37:59.833Z,8.40
2018-05-24T05:40:27.397Z,8.83
2018-05-24T05:42:54.951Z,9.73
2018-05-24T05:45:22.560Z,8.53
2018-05-24T05:47:50.141Z,9.60
2018-05-24T05:50:17.717Z,8.27
2018-05-24T05:52:45.256Z,8.60
2018-05-24T05:55:12.826Z,8.57
2018-05-24T05:57:40.437Z,8.93
2018-05-24T06:00:07.977Z,9.13
2018-05-24T06:02:35.581Z,8.13
2018-05-24T06:05:03.239Z,8.60
2018-05-24T06:07:30.823Z,8.67
2018-05-24T06:09:58.360Z,9.60
2018-05-24T06:12:25.985Z,9.80
2018-05-24T06:14:53.542Z,8.80
2018-05-24T06:17:21.155Z,9.23
2018-05-24T06:19:48.734Z,9.40
2018-05-24T06:22:16.313Z,9.57
2018-05-24T06:24:44.251Z,9.73
2018-05-24T06:27:11.848Z,8.93
2018-05-24T06:29:39.390Z,8.70
2018-05-24T06:32:06.989Z,9.43
2018-05-24T06:34:34.548Z,8.50
2018-05-24T06:37:14.492Z,9.53
2018-05-24T06:39:41.987Z,8.90
2018-05-24T06:42:09.561Z,9.10
2018-05-24T06:44:37.160Z,8.90
2018-05-24T06:47:05.683Z,9.60
2018-05-24T06:49:33.280Z,9.77
2018-05-24T06:52:01.516Z,10.80
2018-05-24T06:54:29.170Z,8.80
2018-05-24T06:56:56.740Z,10.30
2018-05-24T06:59:24.326Z,9.77
2018-05-24T07:01:51.888Z,9.33
2018-05-24T07:04:19.493Z,10.93
2018-05-24T07:06:47.100Z,10.67
2018-05-24T07:09:14.682Z,9.77
2018-05-24T07:11:42.270Z,9.37
2018-05-24T07:14:10.073Z,10.37
2018-05-24T07:16:37.627Z,11.03
2018-05-24T07:19:05.227Z,11.03
2018-05-24T07:21:33.513Z,11.63
2018-05-24T07:24:01.106Z,11.03
2018-05-24T07:26:28.662Z,12.43
2018-05-24T07:28:56.257Z,12.17
2018-05-24T07:31:23.952Z,12.40
2018-05-24T07:33:51.556Z,13.53
2018-05-24T07:36:19.121Z,14.47
2018-05-24T07:38:46.865Z,14.53
2018-05-24T07:41:14.430Z,14.07
2018-05-24T07:43:41.977Z,14.80
2018-05-24T07:46:09.573Z,13.93
2018-05-24T07:48:37.174Z,14.10
2018-05-24T07:51:04.751Z,14.67
2018-05-24T07:53:32.330Z,14.27
2018-05-24T07:55:59.897Z,13.23
2018-05-24T07:58:27.537Z,13.10
2018-05-24T08:00:55.083Z,13.57
2018-05-24T08:03:22.644Z,12.40
2018-05-24T08:05:50.244Z,12.40
2018-05-24T08:08:17.784Z,12.17
2018-05-24T08:10:45.397Z,11.03
2018-05-24T08:13:12.938Z,10.30
2018-05-24T08:15:40.509Z,10.13
2018-05-24T08:18:08.077Z,9.77
2018-05-24T08:20:35.653Z,9.10
2018-05-24T08:23:03.175Z,8.93
2018-05-24T08:25:31.145Z,8.30
2018-05-24T08:27:58.705Z,9.53
2018-05-24T08:30:26.308Z,9.07
2018-05-24T08:32:53.853Z,9.23
2018-05-24T08:35:21.438Z,8.00
2018-05-24T08:37:49.042Z,8.00
2018-05-24T08:40:16.631Z,8.50
2018-05-24T08:42:44.156Z,7.43
2018-05-24T08:45:11.734Z,7.60
2018-05-24T08:47:39.274Z,9.07
2018-05-24T08:50:06.848Z,7.97
2018-05-24T08:52:34.413Z,7.63
2018-05-24T08:55:01.982Z,7.57
2018-05-24T08:57:29.540Z,7.80
2018-05-24T08:59:57.126Z,7.70
2018-05-24T09:02:24.669Z,7.57
2018-05-24T09:04:52.238Z,7.30
2018-05-24T09:07:19.800Z,6.83
2018-05-24T09:09:47.389Z,6.90
2018-05-24T09:12:14.938Z,7.40
2018-05-24T09:14:42.442Z,7.10
2018-05-24T09:17:10.014Z,6.73
2018-05-24T09:19:37.608Z,6.50
2018-05-24T09:22:05.202Z,7.03
2018-05-24T09:24:32.744Z,6.70
2018-05-24T09:27:00.334Z,6.60
2018-05-24T09:29:27.966Z,7.10
2018-05-24T09:31:55.541Z,7.87
2018-05-24T09:34:23.082Z,7.60
2018-05-24T09:36:50.635Z,6.37
2018-05-24T09:39:18.227Z,8.27
2018-05-24T09:41:45.837Z,6.57
2018-05-24T09:44:13.802Z,5.33
2018-05-24T09:46:41.403Z,5.10
2018-05-24T09:49:08.926Z,5.93
2018-05-24T09:51:36.546Z,7.20
2018-05-24T09:54:04.149Z,5.57
2018-05-24T09:56:31.735Z,5.53
2018-05-24T09:58:59.553Z,5.50
2018-05-24T10:01:27.544Z,5.67
2018-05-24T10:03:55.066Z,4.70
2018-05-24T10:06:22.684Z,5.20
2018-05-24T10:08:50.251Z,4.87
2018-05-24T10:11:18.022Z,6.50
2018-05-24T10:13:45.570Z,7.30
2018-05-24T10:16:13.216Z,6.47
2018-05-24T10:18:40.705Z,5.93
2018-05-24T10:21:08.358Z,7.10
2018-05-24T10:23:35.924Z,6.50
2018-05-24T10:26:03.484Z,5.73
2018-05-24T10:28:31.056Z,5.90
2018-05-24T10:30:58.634Z,5.23
2018-05-24T10:33:26.221Z,5.00
2018-05-24T10:35:53.795Z,5.70
2018-05-24T10:38:21.368Z,5.00
2018-05-24T10:40:48.919Z,4.40
2018-05-24T10:43:16.497Z,4.20
2018-05-24T10:45:44.065Z,4.30
2018-05-24T10:48:11.645Z,4.63
2018-05-24T10:50:39.614Z,4.97
2018-05-24T10:53:07.184Z,6.33
2018-05-24T10:55:35.132Z,6.80
2018-05-24T10:58:02.722Z,6.70
2018-05-24T11:00:30.318Z,6.53
2018-05-24T11:02:58.040Z,6.30
2018-05-24T11:05:25.508Z,6.63
2018-05-24T11:07:53.068Z,6.83
2018-05-24T11:10:20.649Z,7.83
2018-05-24T11:12:48.218Z,8.47
2018-05-24T11:15:15.778Z,8.60
2018-05-24T11:17:43.400Z,7.97
2018-05-24T11:20:10.971Z,7.90
2018-05-24T11:22:38.538Z,8.20
2018-05-24T11:25:06.159Z,7.77
2018-05-24T11:27:33.617Z,8.57
2018-05-24T11:30:01.211Z,9.30
2018-05-24T11:32:28.751Z,8.67
2018-05-24T11:34:56.313Z,8.43
2018-05-24T11:37:24.034Z,7.30
2018-05-24T11:39:51.465Z,8.27
2018-05-24T11:42:19.033Z,8.70
2018-05-24T11:44:46.664Z,9.57
2018-05-24T11:47:14.201Z,8.77
2018-05-24T11:49:41.831Z,8.57
2018-05-24T11:52:09.806Z,8.63
2018-05-24T11:54:37.405Z,8.03
2018-05-24T11:57:04.962Z,8.70
2018-05-24T11:59:32.534Z,8.77
2018-05-24T12:02:00.067Z,8.20
2018-05-24T12:04:27.657Z,8.17
2018-05-24T12:06:55.238Z,7.13
2018-05-24T12:09:23.850Z,7.07
2018-05-24T12:11:51.402Z,6.10
2018-05-24T12:14:20.954Z,6.57
2018-05-24T12:16:48.481Z,7.70
2018-05-24T12:19:16.057Z,6.70
2018-05-24T12:21:43.626Z,7.37
2018-05-24T12:24:11.253Z,7.80
2018-05-24T12:26:38.868Z,7.33
2018-05-24T12:29:06.433Z,8.53
2018-05-24T12:31:34.055Z,8.00
2018-05-24T12:34:01.670Z,8.03
2018-05-24T12:36:29.253Z,7.27
2018-05-24T12:38:56.805Z,6.40
2018-05-24T12:41:24.349Z,7.53
2018-05-24T12:43:51.930Z,7.20
2018-05-24T12:46:19.513Z,6.60
2018-05-24T12:48:47.081Z,6.93
2018-05-24T12:51:14.697Z,6.80
2018-05-24T12:53:42.261Z,5.87
2018-05-24T12:56:09.893Z,6.63
2018-05-24T12:58:37.825Z,6.30
2018-05-24T13:01:11.696Z,6.70
2018-05-24T13:03:39.271Z,7.57
2018-05-24T13:06:06.859Z,8.90
2018-05-24T13:08:34.401Z,9.27
2018-05-24T13:11:02.427Z,9.07
2018-05-24T13:13:30.086Z,10.13
2018-05-24T13:15:58.517Z,9.33
2018-05-24T13:18:26.163Z,8.53
2018-05-24T13:20:53.772Z,8.90
2018-05-24T13:23:21.366Z,8.70
2018-05-24T13:25:48.939Z,7.43
2018-05-24T13:28:16.466Z,8.17
2018-05-24T13:30:44.057Z,6.53
2018-05-24T13:33:11.657Z,5.93
2018-05-24T13:35:39.270Z,5.07
2018-05-24T13:38:06.842Z,6.20
2018-05-24T13:40:34.551Z,6.27
2018-05-24T13:43:02.061Z,6.27
2018-05-24T13:45:29.714Z,6.57
2018-05-24T13:47:57.269Z,7.07
2018-05-24T13:50:24.855Z,6.13
2018-05-24T13:52:52.465Z,6.00
2018-05-24T13:55:20.012Z,6.27
2018-05-24T13:57:47.628Z,6.70
2018-05-24T14:00:15.245Z,7.57
2018-05-24T14:02:42.834Z,7.70
2018-05-24T14:05:10.387Z,7.23
2018-05-24T14:07:38.002Z,7.00
2018-05-24T14:10:05.535Z,7.60
2018-05-24T14:12:33.270Z,8.80
2018-05-24T14:15:00.839Z,7.83
2018-05-24T14:17:28.510Z,7.83
2018-05-24T14:19:56.072Z,8.30
2018-05-24T14:22:23.669Z,7.70
2018-05-24T14:24:51.349Z,8.07
2018-05-24T14:27:19.109Z,6.87
2018-05-24T14:29:46.628Z,7.30
2018-05-24T14:32:14.829Z,7.40
2018-05-24T14:34:42.501Z,8.27
2018-05-24T14:37:10.155Z,6.07
2018-05-24T14:39:38.093Z,5.83
2018-05-24T14:42:05.671Z,7.40
2018-05-24T14:44:33.217Z,7.00
2018-05-24T14:47:00.798Z,7.30
2018-05-24T14:49:28.380Z,7.10
2018-05-24T14:51:55.986Z,7.87
2018-05-24T14:54:23.574Z,8.03
2018-05-24T14:56:54.327Z,7.40
2018-05-24T15:02:18.819Z,6.80
2018-05-24T15:04:57.987Z,7.80
2018-05-24T15:07:25.575Z,7.43
2018-05-24T15:09:53.110Z,6.87
2018-05-24T15:12:29.005Z,5.63
2018-05-24T15:14:58.214Z,5.50
2018-05-24T15:17:29.308Z,5.53
2018-05-24T15:19:58.143Z,6.67
2018-05-24T15:22:25.760Z,6.93
2018-05-24T15:24:53.331Z,6.77
2018-05-24T15:27:20.925Z,5.60
2018-05-24T15:29:48.495Z,5.50
2018-05-24T15:32:16.102Z,5.47
2018-05-24T15:34:44.573Z,6.10
2018-05-24T15:37:12.126Z,5.70
2018-05-24T15:39:40.123Z,5.60
2018-05-24T15:42:07.684Z,6.73
2018-05-24T15:44:35.236Z,5.40
2018-05-24T15:47:02.845Z,5.83
2018-05-24T15:49:30.514Z,5.40
2018-05-24T15:51:58.112Z,5.03
2018-05-24T15:54:25.699Z,5.20
2018-05-24T15:56:53.310Z,5.10
2018-05-24T15:59:20.877Z,4.80
2018-05-24T16:01:48.425Z,4.63
2018-05-24T16:04:16.427Z,5.33
2018-05-24T16:06:43.992Z,5.37
2018-05-24T16:09:11.586Z,5.87
2018-05-24T16:11:39.198Z,6.57
2018-05-24T16:14:06.787Z,6.27
2018-05-24T16:16:34.343Z,7.33
2018-05-24T16:19:01.941Z,7.10
2018-05-24T16:21:29.904Z,6.90
2018-05-24T16:23:57.490Z,7.73
2018-05-24T16:26:25.057Z,7.73
2018-05-24T16:28:52.641Z,7.27
2018-05-24T16:31:20.210Z,7.57
2018-05-24T16:33:47.793Z,8.90
2018-05-24T16:36:15.347Z,8.17
2018-05-24T16:38:43.305Z,7.90
2018-05-24T16:41:10.873Z,8.70
2018-05-24T16:43:38.485Z,7.90
2018-05-24T16:46:06.070Z,8.90
2018-05-24T16:48:33.676Z,10.03
2018-05-24T16:51:01.230Z,9.47
2018-05-24T16:53:28.834Z,10.13
2018-05-24T16:55:56.409Z,8.50
2018-05-24T16:58:24.027Z,8.87
2018-05-24T17:00:51.639Z,8.87
2018-05-24T17:03:19.222Z,8.90
2018-05-24T17:05:46.794Z,8.10
2018-05-24T17:08:14.343Z,8.10
2018-05-24T17:10:42.329Z,7.20
2018-05-24T17:13:09.883Z,6.80
2018-05-24T17:15:37.489Z,6.23
2018-05-24T17:18:05.022Z,5.97
2018-05-24T17:20:32.594Z,5.73
2018-05-24T17:23:00.138Z,7.17
2018-05-24T17:25:27.725Z,6.83
2018-05-24T17:27:55.298Z,6.23
2018-05-24T17:30:22.897Z,5.80
2018-05-24T17:32:50.473Z,5.40
2018-05-24T17:35:18.046Z,4.67
2018-05-24T17:37:45.609Z,4.77
2018-05-24T17:40:13.205Z,4.30
2018-05-24T17:42:40.803Z,4.10
2018-05-24T17:45:08.647Z,4.10
2018-05-24T17:47:36.616Z,4.17
2018-05-24T17:50:04.182Z,4.30
2018-05-24T17:52:31.716Z,3.33
2018-05-24T17:54:59.552Z,2.93
2018-05-24T17:57:27.142Z,3.00
2018-05-24T17:59:55.077Z,3.20
2018-05-24T18:02:22.635Z,3.13
2018-05-24T18:04:50.172Z,2.70
2018-05-24T18:07:17.780Z,2.97
2018-05-24T18:09:45.364Z,2.90
2018-05-24T18:12:12.949Z,3.20
2018-05-24T18:14:40.522Z,3.07
2018-05-24T18:17:08.109Z,3.30
2018-05-24T18:19:35.710Z,3.30
2018-05-24T18:22:03.333Z,3.80
2018-05-24T18:24:30.906Z,3.70
2018-05-24T18:27:05.184Z,3.90
2018-05-24T18:29:32.825Z,4.87
2018-05-24T18:32:00.397Z,4.33
2018-05-24T18:34:41.305Z,4.73
2018-05-24T18:37:08.909Z,4.70
2018-05-24T18:39:36.450Z,4.93
2018-05-24T18:42:04.062Z,4.30
2018-05-24T18:44:31.621Z,4.53
2018-05-24T18:46:59.213Z,4.20
2018-05-24T18:49:26.778Z,4.70
2018-05-24T18:51:54.361Z,5.00
2018-05-24T18:54:21.921Z,5.10
2018-05-24T18:56:49.541Z,5.03
2018-05-24T18:59:17.144Z,4.93
2018-05-24T19:01:44.761Z,4.53
2018-05-24T19:04:12.289Z,4.70
2018-05-24T19:06:39.869Z,5.20
2018-05-24T19:09:07.790Z,4.87
2018-05-24T19:11:35.366Z,4.97
2018-05-24T19:14:02.935Z,4.50
2018-05-24T19:16:30.464Z,4.97
2018-05-24T19:19:03.248Z,5.00
2018-05-24T19:21:30.774Z,4.80
2018-05-24T19:23:58.389Z,4.47
2018-05-24T19:26:25.975Z,5.20
2018-05-24T19:28:54.579Z,5.03
2018-05-24T19:31:22.246Z,4.53
2018-05-24T19:33:49.837Z,4.70
2018-05-24T19:36:17.386Z,4.50
2018-05-24T19:38:45.016Z,4.43
2018-05-24T19:41:12.563Z,4.53
2018-05-24T19:43:40.150Z,4.67
2018-05-24T19:46:07.685Z,4.30
2018-05-24T19:48:35.278Z,4.60
2018-05-24T19:51:02.813Z,4.93
2018-05-24T19:53:30.368Z,5.00
2018-05-24T19:55:57.917Z,4.57
2018-05-24T19:58:25.499Z,4.40
2018-05-24T20:00:55.162Z,4.97
2018-05-24T20:03:22.723Z,5.93
2018-05-24T20:05:50.289Z,5.90
2018-05-24T20:08:17.881Z,6.43
2018-05-24T20:10:45.445Z,6.10
2018-05-24T20:13:13.584Z,6.07
2018-05-24T20:15:41.131Z,6.33
2018-05-24T20:18:08.745Z,6.20
2018-05-24T20:20:36.310Z,5.83
2018-05-24T20:23:03.929Z,5.60
2018-05-24T20:25:31.534Z,5.37
2018-05-24T20:27:59.093Z,5.80
2018-05-24T20:30:26.680Z,6.10
2018-05-24T20:32:54.304Z,6.40
2018-05-24T20:35:21.897Z,6.40
2018-05-24T20:37:49.442Z,6.57
2018-05-24T20:40:17.038Z,6.60
2018-05-24T20:42:44.586Z,7.27
2018-05-24T20:45:12.178Z,7.60
2018-05-24T20:47:39.724Z,7.47
2018-05-24T20:50:07.300Z,7.73
2018-05-24T20:52:34.942Z,8.03
2018-05-24T20:55:02.727Z,8.00
2018-05-24T20:57:30.329Z,7.97
2018-05-24T20:59:57.891Z,8.07
2018-05-24T21:02:25.442Z,8.07
2018-05-24T21:04:53.033Z,8.20
2018-05-24T21:07:21.912Z,7.80
2018-05-24T21:09:49.529Z,8.03
2018-05-24T21:12:17.107Z,7.33
2018-05-24T21:14:44.727Z,7.07
2018-05-24T21:17:12.366Z,7.90
2018-05-24T21:19:39.957Z,7.43
2018-05-24T21:22:07.494Z,8.03
2018-05-24T21:24:35.101Z,8.40
2018-05-24T21:27:02.669Z,7.80
2018-05-24T21:29:30.267Z,8.13
2018-05-24T21:31:57.849Z,8.80
2018-05-24T21:34:25.471Z,8.77
2018-05-24T21:36:53.057Z,8.07
2018-05-24T21:39:20.646Z,9.23
2018-05-24T21:41:48.218Z,8.53
2018-05-24T21:44:15.805Z,9.20
2018-05-24T21:46:43.341Z,9.60
2018-05-24T21:49:10.965Z,10.00
2018-05-24T21:51:38.573Z,8.23
2018-05-24T21:54:06.135Z,7.70
2018-05-24T21:56:33.729Z,6.87
2018-05-24T21:59:01.306Z,8.20
2018-05-24T22:01:28.930Z,8.03
2018-05-24T22:03:56.492Z,8.40
2018-05-24T22:06:24.075Z,7.60
2018-05-24T22:08:51.664Z,8.67
2018-05-24T22:11:19.281Z,7.80
2018-05-24T22:13:46.813Z,7.33
2018-05-24T22:16:14.448Z,8.00
2018-05-24T22:18:42.042Z,9.57
2018-05-24T22:21:09.686Z,10.83
2018-05-24T22:23:37.259Z,10.27
2018-05-24T22:26:04.897Z,9.47
2018-05-24T22:28:32.429Z,9.53
2018-05-24T22:31:00.334Z,8.50
2018-05-24T22:33:27.906Z,8.00
2018-05-24T22:35:55.477Z,7.80
2018-05-24T22:38:23.058Z,8.33
2018-05-24T22:40:50.641Z,8.47
2018-05-24T22:43:18.267Z,8.53
2018-05-24T22:45:45.865Z,8.70
2018-05-24T22:48:13.437Z,8.77
2018-05-24T22:50:40.995Z,10.37
2018-05-24T22:53:08.571Z,8.07
2018-05-24T22:55:36.183Z,7.83
2018-05-24T22:58:03.731Z,7.73
2018-05-24T23:00:31.336Z,8.40
2018-05-24T23:02:58.913Z,8.60
2018-05-24T23:05:26.606Z,8.53
2018-05-24T23:07:54.184Z,7.90
2018-05-24T23:10:21.806Z,7.77
2018-05-24T23:12:49.437Z,7.13
2018-05-24T23:15:16.973Z,8.37
2018-05-24T23:17:44.553Z,7.97
2018-05-24T23:20:12.174Z,7.97
2018-05-24T23:22:39.757Z,7.93
2018-05-24T23:25:07.495Z,8.47
2018-05-24T23:27:35.074Z,8.70
2018-05-24T23:30:02.598Z,8.70
2018-05-24T23:32:30.217Z,9.50
2018-05-24T23:34:57.766Z,9.37
2018-05-24T23:37:25.417Z,9.60
2018-05-24T23:39:52.989Z,9.00
2018-05-24T23:42:20.579Z,8.93
2018-05-24T23:44:48.189Z,8.30
2018-05-24T23:47:15.811Z,8.53
2018-05-24T23:49:43.375Z,7.67
2018-05-24T23:52:11.385Z,8.03
2018-05-24T23:54:38.929Z,7.30
2018-05-24T23:57:06.586Z,8.10
2018-05-24T23:59:34.110Z,7.87
